If you wish to contribute or participate in the discussions about articles you are invited to join SKYbrary as a registered user

 Actions

Konya Airport

From SKYbrary Wiki

LTAN
Airport
ICAO: LTAN – IATA: KYA
Summary
Name Konya Airport
Region Europe
Territory Turkey TR.gif
Location Konya
Serving Konya
Elevation 1,030.529 m
3,381 ft
3,381 ft1,030.529 m
Coordinates 37° 59' 0.96" N, 32° 34' 36.84" E
Runways
Designator Length Width Surface ROPS
01L/19R 3348 m10,984.252 ft
45 m147.638 ft
ASP yes/yes
01R/19L 3348 m10,984.252 ft
45 m147.638 ft
CON yes/yes


METAR
Observation LTAN 231650Z 09002KT CAVOK 11/M02 Q1026 NOSIG
Station Konya
Date/Time 23 April 2019 16:50:00
Wind direction 90°
Wind speed 02 kts
Lowest cloud amount clouds and visibility OK
Temperature 11°C
Dew point
Humidity 40%
QNH 1026 hPa
Weather condition n/a